sensor_id;sensor_type;location;lat;lon;timestamp;P1;durP1;ratioP1;P2;durP2;ratioP2
4122;SDS011;2075;51.062;6.920;2024-02-26T00:02:43;1.63;;;1.60;;
4122;SDS011;2075;51.062;6.920;2024-02-26T00:05:33;2.53;;;1.70;;
4122;SDS011;2075;51.062;6.920;2024-02-26T00:08:23;2.33;;;1.67;;
4122;SDS011;2075;51.062;6.920;2024-02-26T00:11:09;2.50;;;1.93;;
4122;SDS011;2075;51.062;6.920;2024-02-26T00:13:54;2.17;;;1.97;;
4122;SDS011;2075;51.062;6.920;2024-02-26T00:16:48;1.97;;;1.80;;
4122;SDS011;2075;51.062;6.920;2024-02-26T00:19:35;2.90;;;1.80;;
4122;SDS011;2075;51.062;6.920;2024-02-26T00:22:22;4.23;;;2.10;;
4122;SDS011;2075;51.062;6.920;2024-02-26T00:27:46;2.67;;;2.27;;
4122;SDS011;2075;51.062;6.920;2024-02-26T00:30:32;3.00;;;1.87;;
4122;SDS011;2075;51.062;6.920;2024-02-26T00:33:17;1.73;;;1.63;;
4122;SDS011;2075;51.062;6.920;2024-02-26T00:36:04;1.97;;;1.77;;
4122;SDS011;2075;51.062;6.920;2024-02-26T00:38:52;1.73;;;1.63;;
4122;SDS011;2075;51.062;6.920;2024-02-26T00:41:38;1.77;;;1.63;;
4122;SDS011;2075;51.062;6.920;2024-02-26T00:44:24;1.90;;;1.33;;
4122;SDS011;2075;51.062;6.920;2024-02-26T00:47:10;8.83;;;1.53;;
4122;SDS011;2075;51.062;6.920;2024-02-26T00:49:56;2.47;;;1.70;;
4122;SDS011;2075;51.062;6.920;2024-02-26T00:52:41;1.90;;;1.63;;
4122;SDS011;2075;51.062;6.920;2024-02-26T00:55:28;1.40;;;1.30;;
4122;SDS011;2075;51.062;6.920;2024-02-26T00:58:26;2.27;;;1.73;;
4122;SDS011;2075;51.062;6.920;2024-02-26T01:01:12;1.43;;;1.43;;
4122;SDS011;2075;51.062;6.920;2024-02-26T01:03:57;1.40;;;1.30;;
4122;SDS011;2075;51.062;6.920;2024-02-26T01:06:46;1.47;;;1.37;;
4122;SDS011;2075;51.062;6.920;2024-02-26T01:09:33;1.43;;;1.10;;
4122;SDS011;2075;51.062;6.920;2024-02-26T01:12:21;1.20;;;1.20;;
4122;SDS011;2075;51.062;6.920;2024-02-26T01:15:06;2.83;;;1.40;;
4122;SDS011;2075;51.062;6.920;2024-02-26T01:17:52;1.40;;;1.30;;
4122;SDS011;2075;51.062;6.920;2024-02-26T01:20:37;1.40;;;1.30;;
4122;SDS011;2075;51.062;6.920;2024-02-26T01:23:22;1.40;;;1.30;;
4122;SDS011;2075;51.062;6.920;2024-02-26T01:26:08;4.93;;;1.20;;
4122;SDS011;2075;51.062;6.920;2024-02-26T01:28:56;1.50;;;1.40;;
4122;SDS011;2075;51.062;6.920;2024-02-26T01:31:41;1.00;;;1.00;;
4122;SDS011;2075;51.062;6.920;2024-02-26T01:34:27;1.40;;;1.30;;
4122;SDS011;2075;51.062;6.920;2024-02-26T01:37:12;1.10;;;1.10;;
4122;SDS011;2075;51.062;6.920;2024-02-26T01:39:58;1.47;;;1.40;;
4122;SDS011;2075;51.062;6.920;2024-02-26T01:42:43;1.30;;;1.30;;
4122;SDS011;2075;51.062;6.920;2024-02-26T01:45:31;1.57;;;1.47;;
4122;SDS011;2075;51.062;6.920;2024-02-26T01:48:16;1.10;;;1.10;;
4122;SDS011;2075;51.062;6.920;2024-02-26T01:51:02;5.57;;;0.90;;
4122;SDS011;2075;51.062;6.920;2024-02-26T01:53:48;0.97;;;0.97;;
4122;SDS011;2075;51.062;6.920;2024-02-26T01:56:34;1.20;;;1.20;;
4122;SDS011;2075;51.062;6.920;2024-02-26T01:59:23;1.90;;;1.80;;
4122;SDS011;2075;51.062;6.920;2024-02-26T02:02:10;6.40;;;1.30;;
4122;SDS011;2075;51.062;6.920;2024-02-26T02:04:57;1.50;;;1.40;;
4122;SDS011;2075;51.062;6.920;2024-02-26T02:07:45;2.10;;;1.43;;
4122;SDS011;2075;51.062;6.920;2024-02-26T02:10:32;1.27;;;1.20;;
4122;SDS011;2075;51.062;6.920;2024-02-26T02:13:17;1.20;;;1.20;;
4122;SDS011;2075;51.062;6.920;2024-02-26T02:16:03;1.50;;;1.40;;
4122;SDS011;2075;51.062;6.920;2024-02-26T02:21:55;1.53;;;1.50;;
4122;SDS011;2075;51.062;6.920;2024-02-26T02:24:40;2.23;;;1.90;;
4122;SDS011;2075;51.062;6.920;2024-02-26T02:30:01;4.10;;;1.50;;
4122;SDS011;2075;51.062;6.920;2024-02-26T02:32:47;1.77;;;1.67;;
4122;SDS011;2075;51.062;6.920;2024-02-26T02:35:32;1.43;;;1.37;;
4122;SDS011;2075;51.062;6.920;2024-02-26T02:38:19;1.50;;;1.50;;
4122;SDS011;2075;51.062;6.920;2024-02-26T02:41:04;2.37;;;1.33;;
4122;SDS011;2075;51.062;6.920;2024-02-26T02:43:53;1.30;;;1.20;;
4122;SDS011;2075;51.062;6.920;2024-02-26T02:46:38;4.40;;;1.10;;
4122;SDS011;2075;51.062;6.920;2024-02-26T02:49:28;1.33;;;1.23;;
4122;SDS011;2075;51.062;6.920;2024-02-26T02:52:14;3.43;;;1.10;;
4122;SDS011;2075;51.062;6.920;2024-02-26T02:55:01;1.30;;;1.30;;
4122;SDS011;2075;51.062;6.920;2024-02-26T02:57:46;1.57;;;1.47;;
4122;SDS011;2075;51.062;6.920;2024-02-26T03:00:32;1.20;;;1.20;;
4122;SDS011;2075;51.062;6.920;2024-02-26T03:03:17;1.43;;;1.33;;
4122;SDS011;2075;51.062;6.920;2024-02-26T03:06:03;1.30;;;1.30;;
4122;SDS011;2075;51.062;6.920;2024-02-26T03:08:48;1.40;;;1.30;;
4122;SDS011;2075;51.062;6.920;2024-02-26T03:11:35;1.00;;;1.00;;
4122;SDS011;2075;51.062;6.920;2024-02-26T03:14:20;1.40;;;1.30;;
4122;SDS011;2075;51.062;6.920;2024-02-26T03:17:06;1.03;;;1.03;;
4122;SDS011;2075;51.062;6.920;2024-02-26T03:19:52;1.93;;;1.13;;
4122;SDS011;2075;51.062;6.920;2024-02-26T03:22:38;1.10;;;1.10;;
4122;SDS011;2075;51.062;6.920;2024-02-26T03:25:23;1.30;;;1.30;;
4122;SDS011;2075;51.062;6.920;2024-02-26T03:28:10;1.20;;;1.20;;
4122;SDS011;2075;51.062;6.920;2024-02-26T03:31:00;2.50;;;1.20;;
4122;SDS011;2075;51.062;6.920;2024-02-26T03:34:00;1.40;;;1.40;;
4122;SDS011;2075;51.062;6.920;2024-02-26T03:36:45;1.47;;;1.37;;
4122;SDS011;2075;51.062;6.920;2024-02-26T03:39:31;1.27;;;1.10;;
4122;SDS011;2075;51.062;6.920;2024-02-26T03:42:16;1.40;;;1.40;;
4122;SDS011;2075;51.062;6.920;2024-02-26T03:45:04;1.43;;;1.33;;
4122;SDS011;2075;51.062;6.920;2024-02-26T03:47:50;1.97;;;1.30;;
4122;SDS011;2075;51.062;6.920;2024-02-26T03:50:36;1.30;;;1.20;;
4122;SDS011;2075;51.062;6.920;2024-02-26T03:53:21;1.47;;;1.37;;
4122;SDS011;2075;51.062;6.920;2024-02-26T03:56:07;2.60;;;1.13;;
4122;SDS011;2075;51.062;6.920;2024-02-26T03:58:55;2.50;;;1.30;;
4122;SDS011;2075;51.062;6.920;2024-02-26T04:01:46;1.27;;;1.13;;
4122;SDS011;2075;51.062;6.920;2024-02-26T04:04:33;1.93;;;1.40;;
4122;SDS011;2075;51.062;6.920;2024-02-26T04:07:19;1.80;;;1.10;;
4122;SDS011;2075;51.062;6.920;2024-02-26T04:10:08;1.00;;;1.00;;
4122;SDS011;2075;51.062;6.920;2024-02-26T04:12:54;1.10;;;1.10;;
4122;SDS011;2075;51.062;6.920;2024-02-26T04:15:39;1.10;;;1.10;;
4122;SDS011;2075;51.062;6.920;2024-02-26T04:18:26;1.23;;;1.23;;
4122;SDS011;2075;51.062;6.920;2024-02-26T04:21:13;1.20;;;1.20;;
4122;SDS011;2075;51.062;6.920;2024-02-26T04:23:58;1.90;;;1.60;;
4122;SDS011;2075;51.062;6.920;2024-02-26T04:26:48;4.90;;;1.23;;
4122;SDS011;2075;51.062;6.920;2024-02-26T04:29:33;1.33;;;1.30;;
4122;SDS011;2075;51.062;6.920;2024-02-26T04:32:19;1.23;;;1.23;;
4122;SDS011;2075;51.062;6.920;2024-02-26T04:35:06;1.20;;;1.20;;
4122;SDS011;2075;51.062;6.920;2024-02-26T04:37:54;1.40;;;1.40;;
4122;SDS011;2075;51.062;6.920;2024-02-26T04:40:42;1.40;;;1.40;;
4122;SDS011;2075;51.062;6.920;2024-02-26T04:43:27;1.73;;;1.63;;
4122;SDS011;2075;51.062;6.920;2024-02-26T04:46:13;2.20;;;1.77;;
4122;SDS011;2075;51.062;6.920;2024-02-26T04:48:59;1.20;;;1.20;;
4122;SDS011;2075;51.062;6.920;2024-02-26T04:51:46;1.30;;;1.30;;
4122;SDS011;2075;51.062;6.920;2024-02-26T04:54:32;1.10;;;1.07;;
4122;SDS011;2075;51.062;6.920;2024-02-26T04:57:20;1.17;;;1.17;;
4122;SDS011;2075;51.062;6.920;2024-02-26T05:00:14;1.50;;;1.40;;
4122;SDS011;2075;51.062;6.920;2024-02-26T05:03:02;1.50;;;1.50;;
4122;SDS011;2075;51.062;6.920;2024-02-26T05:05:50;1.67;;;1.57;;
4122;SDS011;2075;51.062;6.920;2024-02-26T05:08:37;1.50;;;1.40;;
4122;SDS011;2075;51.062;6.920;2024-02-26T05:11:23;1.63;;;1.53;;
4122;SDS011;2075;51.062;6.920;2024-02-26T05:14:09;1.50;;;1.40;;
4122;SDS011;2075;51.062;6.920;2024-02-26T05:16:54;1.90;;;1.80;;
4122;SDS011;2075;51.062;6.920;2024-02-26T05:19:40;2.10;;;1.70;;
4122;SDS011;2075;51.062;6.920;2024-02-26T05:22:29;1.43;;;1.33;;
4122;SDS011;2075;51.062;6.920;2024-02-26T05:25:19;1.67;;;1.57;;
4122;SDS011;2075;51.062;6.920;2024-02-26T05:28:05;1.80;;;1.50;;
4122;SDS011;2075;51.062;6.920;2024-02-26T05:30:51;3.60;;;1.77;;
4122;SDS011;2075;51.062;6.920;2024-02-26T05:33:36;2.97;;;2.50;;
4122;SDS011;2075;51.062;6.920;2024-02-26T05:36:21;1.47;;;1.47;;
4122;SDS011;2075;51.062;6.920;2024-02-26T05:39:07;2.00;;;1.90;;
4122;SDS011;2075;51.062;6.920;2024-02-26T05:41:56;1.70;;;1.60;;
4122;SDS011;2075;51.062;6.920;2024-02-26T05:44:42;1.87;;;1.77;;
4122;SDS011;2075;51.062;6.920;2024-02-26T05:47:28;2.67;;;1.30;;
4122;SDS011;2075;51.062;6.920;2024-02-26T05:50:15;1.37;;;1.37;;
4122;SDS011;2075;51.062;6.920;2024-02-26T05:53:06;1.70;;;1.60;;
4122;SDS011;2075;51.062;6.920;2024-02-26T05:55:53;2.60;;;2.40;;
4122;SDS011;2075;51.062;6.920;2024-02-26T05:58:42;1.80;;;1.70;;
4122;SDS011;2075;51.062;6.920;2024-02-26T06:01:28;1.67;;;1.60;;
4122;SDS011;2075;51.062;6.920;2024-02-26T06:04:16;1.67;;;1.43;;
4122;SDS011;2075;51.062;6.920;2024-02-26T06:07:02;2.00;;;1.90;;
4122;SDS011;2075;51.062;6.920;2024-02-26T06:09:52;2.70;;;1.70;;
4122;SDS011;2075;51.062;6.920;2024-02-26T06:12:37;2.13;;;2.03;;
4122;SDS011;2075;51.062;6.920;2024-02-26T06:15:24;7.50;;;2.10;;
4122;SDS011;2075;51.062;6.920;2024-02-26T06:18:13;2.23;;;2.03;;
4122;SDS011;2075;51.062;6.920;2024-02-26T06:20:59;2.43;;;2.10;;
4122;SDS011;2075;51.062;6.920;2024-02-26T06:23:45;2.27;;;2.10;;
4122;SDS011;2075;51.062;6.920;2024-02-26T06:26:34;3.00;;;2.43;;
4122;SDS011;2075;51.062;6.920;2024-02-26T06:29:21;2.70;;;2.20;;
4122;SDS011;2075;51.062;6.920;2024-02-26T06:32:09;2.10;;;2.00;;
4122;SDS011;2075;51.062;6.920;2024-02-26T06:34:57;4.37;;;2.20;;
4122;SDS011;2075;51.062;6.920;2024-02-26T06:37:47;2.10;;;1.93;;
4122;SDS011;2075;51.062;6.920;2024-02-26T06:40:34;1.73;;;1.70;;
4122;SDS011;2075;51.062;6.920;2024-02-26T06:43:22;2.50;;;2.30;;
4122;SDS011;2075;51.062;6.920;2024-02-26T06:46:08;2.37;;;2.17;;
4122;SDS011;2075;51.062;6.920;2024-02-26T06:48:56;2.67;;;2.47;;
4122;SDS011;2075;51.062;6.920;2024-02-26T06:51:42;2.57;;;2.20;;
4122;SDS011;2075;51.062;6.920;2024-02-26T06:54:27;2.87;;;2.30;;
4122;SDS011;2075;51.062;6.920;2024-02-26T06:57:14;3.97;;;2.23;;
4122;SDS011;2075;51.062;6.920;2024-02-26T07:00:00;2.70;;;2.50;;
4122;SDS011;2075;51.062;6.920;2024-02-26T07:02:48;3.40;;;1.97;;
4122;SDS011;2075;51.062;6.920;2024-02-26T07:05:35;4.70;;;2.20;;
4122;SDS011;2075;51.062;6.920;2024-02-26T07:08:21;6.40;;;2.20;;
4122;SDS011;2075;51.062;6.920;2024-02-26T07:11:07;2.43;;;2.23;;
4122;SDS011;2075;51.062;6.920;2024-02-26T07:13:53;2.10;;;2.00;;
4122;SDS011;2075;51.062;6.920;2024-02-26T07:16:44;2.60;;;2.40;;
4122;SDS011;2075;51.062;6.920;2024-02-26T07:19:32;2.30;;;2.20;;
4122;SDS011;2075;51.062;6.920;2024-02-26T07:22:21;2.07;;;1.97;;
4122;SDS011;2075;51.062;6.920;2024-02-26T07:25:07;2.33;;;2.13;;
4122;SDS011;2075;51.062;6.920;2024-02-26T07:27:56;2.63;;;1.90;;
4122;SDS011;2075;51.062;6.920;2024-02-26T07:30:42;2.03;;;1.87;;
4122;SDS011;2075;51.062;6.920;2024-02-26T07:33:27;2.50;;;2.10;;
4122;SDS011;2075;51.062;6.920;2024-02-26T07:36:15;2.37;;;2.20;;
4122;SDS011;2075;51.062;6.920;2024-02-26T07:39:02;1.93;;;1.83;;
4122;SDS011;2075;51.062;6.920;2024-02-26T07:41:53;2.37;;;2.17;;
4122;SDS011;2075;51.062;6.920;2024-02-26T07:44:38;1.90;;;1.80;;
4122;SDS011;2075;51.062;6.920;2024-02-26T07:47:27;2.40;;;2.20;;
4122;SDS011;2075;51.062;6.920;2024-02-26T07:50:14;3.20;;;2.40;;
4122;SDS011;2075;51.062;6.920;2024-02-26T07:53:01;2.07;;;1.90;;
4122;SDS011;2075;51.062;6.920;2024-02-26T07:55:51;1.80;;;1.70;;
4122;SDS011;2075;51.062;6.920;2024-02-26T07:58:37;2.33;;;2.13;;
4122;SDS011;2075;51.062;6.920;2024-02-26T08:01:23;2.10;;;2.00;;
4122;SDS011;2075;51.062;6.920;2024-02-26T08:04:10;1.90;;;1.80;;
4122;SDS011;2075;51.062;6.920;2024-02-26T08:06:57;2.60;;;1.93;;
4122;SDS011;2075;51.062;6.920;2024-02-26T08:09:42;3.03;;;1.60;;
4122;SDS011;2075;51.062;6.920;2024-02-26T08:12:30;2.10;;;2.00;;
4122;SDS011;2075;51.062;6.920;2024-02-26T08:15:15;2.37;;;2.10;;
4122;SDS011;2075;51.062;6.920;2024-02-26T08:18:02;2.20;;;2.10;;
4122;SDS011;2075;51.062;6.920;2024-02-26T08:20:48;2.67;;;2.50;;
4122;SDS011;2075;51.062;6.920;2024-02-26T08:23:34;6.53;;;2.30;;
4122;SDS011;2075;51.062;6.920;2024-02-26T08:26:19;2.63;;;2.47;;
4122;SDS011;2075;51.062;6.920;2024-02-26T08:29:07;2.60;;;2.40;;
4122;SDS011;2075;51.062;6.920;2024-02-26T08:31:53;2.47;;;2.27;;
4122;SDS011;2075;51.062;6.920;2024-02-26T08:34:39;2.07;;;1.97;;
4122;SDS011;2075;51.062;6.920;2024-02-26T08:37:25;2.40;;;2.30;;
4122;SDS011;2075;51.062;6.920;2024-02-26T08:40:10;3.40;;;2.07;;
4122;SDS011;2075;51.062;6.920;2024-02-26T08:42:56;2.43;;;2.30;;
4122;SDS011;2075;51.062;6.920;2024-02-26T08:45:44;2.50;;;2.30;;
4122;SDS011;2075;51.062;6.920;2024-02-26T08:48:29;5.13;;;2.17;;
4122;SDS011;2075;51.062;6.920;2024-02-26T08:51:15;2.20;;;2.10;;
4122;SDS011;2075;51.062;6.920;2024-02-26T08:54:01;2.67;;;2.47;;
4122;SDS011;2075;51.062;6.920;2024-02-26T08:56:46;3.30;;;2.40;;
4122;SDS011;2075;51.062;6.920;2024-02-26T08:59:32;2.53;;;2.20;;
4122;SDS011;2075;51.062;6.920;2024-02-26T09:02:18;2.33;;;1.93;;
4122;SDS011;2075;51.062;6.920;2024-02-26T09:05:04;2.33;;;2.17;;
4122;SDS011;2075;51.062;6.920;2024-02-26T09:07:51;3.17;;;2.80;;
4122;SDS011;2075;51.062;6.920;2024-02-26T09:10:37;2.60;;;2.40;;
4122;SDS011;2075;51.062;6.920;2024-02-26T09:13:23;3.23;;;2.50;;
4122;SDS011;2075;51.062;6.920;2024-02-26T09:16:11;2.43;;;2.23;;
4122;SDS011;2075;51.062;6.920;2024-02-26T09:18:59;2.17;;;2.00;;
4122;SDS011;2075;51.062;6.920;2024-02-26T09:21:44;8.40;;;2.20;;
4122;SDS011;2075;51.062;6.920;2024-02-26T09:24:30;2.60;;;2.40;;
4122;SDS011;2075;51.062;6.920;2024-02-26T09:27:16;2.37;;;2.23;;
4122;SDS011;2075;51.062;6.920;2024-02-26T09:30:02;2.90;;;2.63;;
4122;SDS011;2075;51.062;6.920;2024-02-26T09:32:49;2.27;;;2.07;;
4122;SDS011;2075;51.062;6.920;2024-02-26T09:35:36;2.30;;;2.20;;
4122;SDS011;2075;51.062;6.920;2024-02-26T09:38:22;2.60;;;2.40;;
4122;SDS011;2075;51.062;6.920;2024-02-26T09:41:07;2.93;;;2.30;;
4122;SDS011;2075;51.062;6.920;2024-02-26T09:43:59;7.43;;;2.43;;
4122;SDS011;2075;51.062;6.920;2024-02-26T09:46:49;2.47;;;2.27;;
4122;SDS011;2075;51.062;6.920;2024-02-26T09:49:37;3.50;;;2.70;;
4122;SDS011;2075;51.062;6.920;2024-02-26T09:52:25;2.73;;;2.53;;
4122;SDS011;2075;51.062;6.920;2024-02-26T09:55:13;3.30;;;2.33;;
4122;SDS011;2075;51.062;6.920;2024-02-26T09:57:59;3.03;;;2.40;;
4122;SDS011;2075;51.062;6.920;2024-02-26T10:00:46;2.30;;;2.10;;
4122;SDS011;2075;51.062;6.920;2024-02-26T10:03:38;2.37;;;2.23;;
4122;SDS011;2075;51.062;6.920;2024-02-26T10:06:26;2.50;;;2.30;;
4122;SDS011;2075;51.062;6.920;2024-02-26T10:09:13;2.07;;;1.93;;
4122;SDS011;2075;51.062;6.920;2024-02-26T10:12:00;3.43;;;2.80;;
4122;SDS011;2075;51.062;6.920;2024-02-26T10:14:46;2.50;;;2.23;;
4122;SDS011;2075;51.062;6.920;2024-02-26T10:17:31;2.53;;;2.33;;
4122;SDS011;2075;51.062;6.920;2024-02-26T10:20:18;2.50;;;2.30;;
4122;SDS011;2075;51.062;6.920;2024-02-26T10:23:07;2.53;;;2.33;;
4122;SDS011;2075;51.062;6.920;2024-02-26T10:25:55;2.60;;;2.40;;
4122;SDS011;2075;51.062;6.920;2024-02-26T10:28:41;2.43;;;2.33;;
4122;SDS011;2075;51.062;6.920;2024-02-26T10:31:28;2.70;;;2.50;;
4122;SDS011;2075;51.062;6.920;2024-02-26T10:34:14;3.40;;;2.60;;
4122;SDS011;2075;51.062;6.920;2024-02-26T10:37:01;3.57;;;2.70;;
4122;SDS011;2075;51.062;6.920;2024-02-26T10:39:48;2.40;;;2.30;;
4122;SDS011;2075;51.062;6.920;2024-02-26T10:42:36;3.30;;;2.93;;
4122;SDS011;2075;51.062;6.920;2024-02-26T10:45:22;3.13;;;2.80;;
4122;SDS011;2075;51.062;6.920;2024-02-26T10:48:09;3.47;;;3.17;;
4122;SDS011;2075;51.062;6.920;2024-02-26T10:50:56;2.83;;;2.30;;
4122;SDS011;2075;51.062;6.920;2024-02-26T10:53:42;2.90;;;2.70;;
4122;SDS011;2075;51.062;6.920;2024-02-26T10:56:30;2.63;;;2.40;;
4122;SDS011;2075;51.062;6.920;2024-02-26T10:59:20;3.37;;;2.60;;
4122;SDS011;2075;51.062;6.920;2024-02-26T11:02:07;3.10;;;2.70;;
4122;SDS011;2075;51.062;6.920;2024-02-26T11:04:55;2.90;;;2.67;;
4122;SDS011;2075;51.062;6.920;2024-02-26T11:07:42;2.70;;;2.50;;
4122;SDS011;2075;51.062;6.920;2024-02-26T11:10:30;3.40;;;3.10;;
4122;SDS011;2075;51.062;6.920;2024-02-26T11:13:18;4.47;;;2.70;;
4122;SDS011;2075;51.062;6.920;2024-02-26T11:16:06;4.20;;;2.60;;
4122;SDS011;2075;51.062;6.920;2024-02-26T11:18:53;2.70;;;2.43;;
4122;SDS011;2075;51.062;6.920;2024-02-26T11:21:43;3.23;;;2.93;;
4122;SDS011;2075;51.062;6.920;2024-02-26T11:24:29;5.93;;;3.03;;
4122;SDS011;2075;51.062;6.920;2024-02-26T11:27:16;2.40;;;2.20;;
4122;SDS011;2075;51.062;6.920;2024-02-26T11:30:05;4.20;;;3.00;;
4122;SDS011;2075;51.062;6.920;2024-02-26T11:32:57;3.23;;;2.83;;
4122;SDS011;2075;51.062;6.920;2024-02-26T11:35:43;3.10;;;2.80;;
4122;SDS011;2075;51.062;6.920;2024-02-26T11:38:30;3.00;;;2.80;;
4122;SDS011;2075;51.062;6.920;2024-02-26T11:41:18;2.60;;;2.40;;
4122;SDS011;2075;51.062;6.920;2024-02-26T11:44:04;5.03;;;2.80;;
4122;SDS011;2075;51.062;6.920;2024-02-26T11:46:51;2.90;;;2.70;;
4122;SDS011;2075;51.062;6.920;2024-02-26T11:49:38;2.97;;;2.67;;
4122;SDS011;2075;51.062;6.920;2024-02-26T11:52:23;4.73;;;2.90;;
4122;SDS011;2075;51.062;6.920;2024-02-26T11:55:09;2.80;;;2.60;;
4122;SDS011;2075;51.062;6.920;2024-02-26T11:57:54;2.90;;;2.40;;
4122;SDS011;2075;51.062;6.920;2024-02-26T12:00:40;2.90;;;2.70;;
4122;SDS011;2075;51.062;6.920;2024-02-26T12:03:27;3.10;;;2.77;;
4122;SDS011;2075;51.062;6.920;2024-02-26T12:06:16;4.40;;;3.20;;
4122;SDS011;2075;51.062;6.920;2024-02-26T12:09:03;3.50;;;2.53;;
4122;SDS011;2075;51.062;6.920;2024-02-26T12:11:50;5.57;;;2.80;;
4122;SDS011;2075;51.062;6.920;2024-02-26T12:14:39;3.63;;;2.90;;
4122;SDS011;2075;51.062;6.920;2024-02-26T12:17:26;3.20;;;2.90;;
4122;SDS011;2075;51.062;6.920;2024-02-26T12:20:12;3.50;;;2.77;;
4122;SDS011;2075;51.062;6.920;2024-02-26T12:23:00;3.33;;;2.73;;
4122;SDS011;2075;51.062;6.920;2024-02-26T12:25:47;3.40;;;2.57;;
4122;SDS011;2075;51.062;6.920;2024-02-26T12:28:33;3.53;;;3.23;;
4122;SDS011;2075;51.062;6.920;2024-02-26T12:31:19;3.50;;;3.10;;
4122;SDS011;2075;51.062;6.920;2024-02-26T12:34:07;3.93;;;3.57;;
4122;SDS011;2075;51.062;6.920;2024-02-26T12:36:54;3.63;;;3.00;;
4122;SDS011;2075;51.062;6.920;2024-02-26T12:39:42;9.70;;;3.60;;
4122;SDS011;2075;51.062;6.920;2024-02-26T12:42:27;3.87;;;3.57;;
4122;SDS011;2075;51.062;6.920;2024-02-26T12:45:16;3.20;;;2.70;;
4122;SDS011;2075;51.062;6.920;2024-02-26T12:48:02;4.37;;;3.33;;
4122;SDS011;2075;51.062;6.920;2024-02-26T12:50:50;5.07;;;3.60;;
4122;SDS011;2075;51.062;6.920;2024-02-26T12:53:36;5.57;;;3.73;;
4122;SDS011;2075;51.062;6.920;2024-02-26T12:56:24;3.83;;;3.43;;
4122;SDS011;2075;51.062;6.920;2024-02-26T12:59:12;6.43;;;3.90;;
4122;SDS011;2075;51.062;6.920;2024-02-26T13:01:58;6.50;;;3.87;;
4122;SDS011;2075;51.062;6.920;2024-02-26T13:04:44;7.50;;;3.73;;
4122;SDS011;2075;51.062;6.920;2024-02-26T13:07:30;4.33;;;3.93;;
4122;SDS011;2075;51.062;6.920;2024-02-26T13:10:17;8.83;;;3.50;;
4122;SDS011;2075;51.062;6.920;2024-02-26T13:13:05;8.43;;;4.77;;
4122;SDS011;2075;51.062;6.920;2024-02-26T13:16:00;5.67;;;3.70;;
4122;SDS011;2075;51.062;6.920;2024-02-26T13:18:47;4.53;;;4.13;;
4122;SDS011;2075;51.062;6.920;2024-02-26T13:21:33;7.03;;;4.37;;
4122;SDS011;2075;51.062;6.920;2024-02-26T13:24:22;5.47;;;4.57;;
4122;SDS011;2075;51.062;6.920;2024-02-26T13:27:09;5.83;;;4.70;;
4122;SDS011;2075;51.062;6.920;2024-02-26T13:30:08;6.83;;;4.93;;
4122;SDS011;2075;51.062;6.920;2024-02-26T13:32:55;8.27;;;5.27;;
4122;SDS011;2075;51.062;6.920;2024-02-26T13:35:52;5.53;;;4.50;;
4122;SDS011;2075;51.062;6.920;2024-02-26T13:38:38;7.90;;;4.60;;
4122;SDS011;2075;51.062;6.920;2024-02-26T13:41:24;4.93;;;4.43;;
4122;SDS011;2075;51.062;6.920;2024-02-26T13:44:10;6.57;;;4.40;;
4122;SDS011;2075;51.062;6.920;2024-02-26T13:46:57;7.97;;;6.87;;
4122;SDS011;2075;51.062;6.920;2024-02-26T13:49:43;8.93;;;5.60;;
4122;SDS011;2075;51.062;6.920;2024-02-26T13:52:29;9.17;;;5.60;;
4122;SDS011;2075;51.062;6.920;2024-02-26T13:55:17;13.43;;;6.10;;
4122;SDS011;2075;51.062;6.920;2024-02-26T13:58:02;12.23;;;6.93;;
4122;SDS011;2075;51.062;6.920;2024-02-26T14:00:50;12.90;;;8.57;;
4122;SDS011;2075;51.062;6.920;2024-02-26T14:03:37;11.97;;;7.93;;
4122;SDS011;2075;51.062;6.920;2024-02-26T14:06:23;14.60;;;8.50;;
4122;SDS011;2075;51.062;6.920;2024-02-26T14:09:10;11.97;;;9.37;;
4122;SDS011;2075;51.062;6.920;2024-02-26T14:12:03;14.00;;;10.20;;
4122;SDS011;2075;51.062;6.920;2024-02-26T14:14:49;16.17;;;9.90;;
4122;SDS011;2075;51.062;6.920;2024-02-26T14:17:40;15.53;;;10.40;;
4122;SDS011;2075;51.062;6.920;2024-02-26T14:20:30;17.57;;;11.70;;
4122;SDS011;2075;51.062;6.920;2024-02-26T14:23:19;17.57;;;11.00;;
4122;SDS011;2075;51.062;6.920;2024-02-26T14:26:09;21.20;;;10.90;;
4122;SDS011;2075;51.062;6.920;2024-02-26T14:28:56;18.90;;;11.63;;
4122;SDS011;2075;51.062;6.920;2024-02-26T14:31:43;19.20;;;11.10;;
4122;SDS011;2075;51.062;6.920;2024-02-26T14:34:33;21.23;;;11.83;;
4122;SDS011;2075;51.062;6.920;2024-02-26T14:37:21;16.63;;;11.13;;
4122;SDS011;2075;51.062;6.920;2024-02-26T14:40:08;15.73;;;10.13;;
4122;SDS011;2075;51.062;6.920;2024-02-26T14:43:02;13.80;;;10.40;;
4122;SDS011;2075;51.062;6.920;2024-02-26T14:45:55;17.50;;;11.10;;
4122;SDS011;2075;51.062;6.920;2024-02-26T14:48:49;15.60;;;9.57;;
4122;SDS011;2075;51.062;6.920;2024-02-26T14:51:35;15.93;;;10.70;;
4122;SDS011;2075;51.062;6.920;2024-02-26T14:54:25;14.30;;;9.47;;
4122;SDS011;2075;51.062;6.920;2024-02-26T14:57:18;12.53;;;9.00;;
4122;SDS011;2075;51.062;6.920;2024-02-26T15:00:11;14.00;;;10.27;;
4122;SDS011;2075;51.062;6.920;2024-02-26T15:03:02;13.10;;;9.40;;
4122;SDS011;2075;51.062;6.920;2024-02-26T15:05:50;14.00;;;9.50;;
4122;SDS011;2075;51.062;6.920;2024-02-26T15:08:36;15.43;;;9.23;;
4122;SDS011;2075;51.062;6.920;2024-02-26T15:11:24;13.20;;;9.70;;
4122;SDS011;2075;51.062;6.920;2024-02-26T15:14:10;15.40;;;9.47;;
4122;SDS011;2075;51.062;6.920;2024-02-26T15:16:58;11.73;;;8.23;;
4122;SDS011;2075;51.062;6.920;2024-02-26T15:19:44;20.90;;;9.53;;
4122;SDS011;2075;51.062;6.920;2024-02-26T15:22:33;15.53;;;9.90;;
4122;SDS011;2075;51.062;6.920;2024-02-26T15:25:21;15.47;;;10.73;;
4122;SDS011;2075;51.062;6.920;2024-02-26T15:28:09;13.67;;;9.80;;
4122;SDS011;2075;51.062;6.920;2024-02-26T15:30:57;16.93;;;9.97;;
4122;SDS011;2075;51.062;6.920;2024-02-26T15:33:46;17.03;;;9.70;;
4122;SDS011;2075;51.062;6.920;2024-02-26T15:36:33;12.77;;;8.60;;
4122;SDS011;2075;51.062;6.920;2024-02-26T15:39:19;13.30;;;9.33;;
4122;SDS011;2075;51.062;6.920;2024-02-26T15:42:10;17.60;;;9.67;;
4122;SDS011;2075;51.062;6.920;2024-02-26T15:45:09;10.87;;;8.00;;
4122;SDS011;2075;51.062;6.920;2024-02-26T15:48:00;13.37;;;8.90;;
4122;SDS011;2075;51.062;6.920;2024-02-26T15:50:47;12.93;;;8.80;;
4122;SDS011;2075;51.062;6.920;2024-02-26T15:53:37;14.50;;;8.60;;
4122;SDS011;2075;51.062;6.920;2024-02-26T15:56:23;12.87;;;8.90;;
4122;SDS011;2075;51.062;6.920;2024-02-26T15:59:10;11.73;;;8.27;;
4122;SDS011;2075;51.062;6.920;2024-02-26T16:01:57;14.13;;;8.33;;
4122;SDS011;2075;51.062;6.920;2024-02-26T16:04:46;9.90;;;7.70;;
4122;SDS011;2075;51.062;6.920;2024-02-26T16:07:34;11.83;;;8.70;;
4122;SDS011;2075;51.062;6.920;2024-02-26T16:10:29;11.23;;;8.30;;
4122;SDS011;2075;51.062;6.920;2024-02-26T16:13:20;14.10;;;10.00;;
4122;SDS011;2075;51.062;6.920;2024-02-26T16:16:07;10.67;;;8.40;;
4122;SDS011;2075;51.062;6.920;2024-02-26T16:19:06;16.00;;;9.30;;
4122;SDS011;2075;51.062;6.920;2024-02-26T16:22:04;14.10;;;9.40;;
4122;SDS011;2075;51.062;6.920;2024-02-26T16:24:53;13.97;;;10.00;;
4122;SDS011;2075;51.062;6.920;2024-02-26T16:27:43;15.80;;;11.40;;
4122;SDS011;2075;51.062;6.920;2024-02-26T16:30:38;14.03;;;9.77;;
4122;SDS011;2075;51.062;6.920;2024-02-26T16:33:24;16.93;;;11.30;;
4122;SDS011;2075;51.062;6.920;2024-02-26T16:36:13;17.03;;;10.90;;
4122;SDS011;2075;51.062;6.920;2024-02-26T16:39:20;13.97;;;9.70;;
4122;SDS011;2075;51.062;6.920;2024-02-26T16:42:21;13.30;;;8.97;;
4122;SDS011;2075;51.062;6.920;2024-02-26T16:45:14;14.17;;;9.43;;
4122;SDS011;2075;51.062;6.920;2024-02-26T16:48:01;12.97;;;8.07;;
4122;SDS011;2075;51.062;6.920;2024-02-26T16:50:52;11.83;;;8.73;;
4122;SDS011;2075;51.062;6.920;2024-02-26T16:53:40;13.53;;;7.87;;
4122;SDS011;2075;51.062;6.920;2024-02-26T16:56:30;10.60;;;8.30;;
4122;SDS011;2075;51.062;6.920;2024-02-26T16:59:18;12.70;;;8.60;;
4122;SDS011;2075;51.062;6.920;2024-02-26T17:02:05;10.70;;;7.70;;
4122;SDS011;2075;51.062;6.920;2024-02-26T17:04:53;13.23;;;8.10;;
4122;SDS011;2075;51.062;6.920;2024-02-26T17:07:42;12.80;;;8.17;;
4122;SDS011;2075;51.062;6.920;2024-02-26T17:10:31;10.77;;;7.70;;
4122;SDS011;2075;51.062;6.920;2024-02-26T17:13:18;12.30;;;8.03;;
4122;SDS011;2075;51.062;6.920;2024-02-26T17:16:09;11.63;;;8.13;;
4122;SDS011;2075;51.062;6.920;2024-02-26T17:18:57;12.50;;;7.90;;
4122;SDS011;2075;51.062;6.920;2024-02-26T17:21:46;11.23;;;7.50;;
4122;SDS011;2075;51.062;6.920;2024-02-26T17:24:34;11.60;;;7.37;;
4122;SDS011;2075;51.062;6.920;2024-02-26T17:27:22;11.60;;;7.60;;